sensor_id;sensor_type;location;lat;lon;timestamp;P1;durP1;ratioP1;P2;durP2;ratioP2
58484;SDS011;44268;43.138;0.072;2022-08-21T00:01:27;3.03;;;2.08;;
58484;SDS011;44268;43.138;0.072;2022-08-21T00:03:54;1.70;;;1.60;;
58484;SDS011;44268;43.138;0.072;2022-08-21T00:06:21;2.10;;;1.88;;
58484;SDS011;44268;43.138;0.072;2022-08-21T00:11:14;2.25;;;2.03;;
58484;SDS011;44268;43.138;0.072;2022-08-21T00:13:40;1.80;;;1.70;;
58484;SDS011;44268;43.138;0.072;2022-08-21T00:16:06;2.67;;;1.90;;
58484;SDS011;44268;43.138;0.072;2022-08-21T00:18:33;1.38;;;1.33;;
58484;SDS011;44268;43.138;0.072;2022-08-21T00:20:59;2.65;;;1.90;;
58484;SDS011;44268;43.138;0.072;2022-08-21T00:23:25;1.77;;;1.60;;
58484;SDS011;44268;43.138;0.072;2022-08-21T00:25:51;2.00;;;1.90;;
58484;SDS011;44268;43.138;0.072;2022-08-21T00:28:17;2.28;;;2.08;;
58484;SDS011;44268;43.138;0.072;2022-08-21T00:30:43;2.13;;;1.92;;
58484;SDS011;44268;43.138;0.072;2022-08-21T00:33:10;2.00;;;1.88;;
58484;SDS011;44268;43.138;0.072;2022-08-21T00:35:37;4.35;;;1.73;;
58484;SDS011;44268;43.138;0.072;2022-08-21T00:38:04;2.22;;;1.88;;
58484;SDS011;44268;43.138;0.072;2022-08-21T00:40:35;1.85;;;1.75;;
58484;SDS011;44268;43.138;0.072;2022-08-21T00:43:03;2.00;;;1.80;;
58484;SDS011;44268;43.138;0.072;2022-08-21T00:45:29;2.15;;;1.83;;
58484;SDS011;44268;43.138;0.072;2022-08-21T00:47:56;2.22;;;2.00;;
58484;SDS011;44268;43.138;0.072;2022-08-21T00:50:24;2.38;;;2.20;;
58484;SDS011;44268;43.138;0.072;2022-08-21T00:52:51;5.68;;;2.35;;
58484;SDS011;44268;43.138;0.072;2022-08-21T00:55:18;2.78;;;2.50;;
58484;SDS011;44268;43.138;0.072;2022-08-21T00:57:45;2.00;;;1.90;;
58484;SDS011;44268;43.138;0.072;2022-08-21T01:00:15;4.10;;;2.08;;
58484;SDS011;44268;43.138;0.072;2022-08-21T01:02:42;2.80;;;1.92;;
58484;SDS011;44268;43.138;0.072;2022-08-21T01:05:09;2.67;;;2.20;;
58484;SDS011;44268;43.138;0.072;2022-08-21T01:07:35;3.23;;;2.20;;
58484;SDS011;44268;43.138;0.072;2022-08-21T01:10:03;2.17;;;1.98;;
58484;SDS011;44268;43.138;0.072;2022-08-21T01:12:30;2.03;;;1.70;;
58484;SDS011;44268;43.138;0.072;2022-08-21T01:14:56;2.25;;;2.15;;
58484;SDS011;44268;43.138;0.072;2022-08-21T01:17:23;2.20;;;2.00;;
58484;SDS011;44268;43.138;0.072;2022-08-21T01:19:49;2.60;;;2.10;;
58484;SDS011;44268;43.138;0.072;2022-08-21T01:22:15;2.10;;;1.95;;
58484;SDS011;44268;43.138;0.072;2022-08-21T01:24:41;4.53;;;2.50;;
58484;SDS011;44268;43.138;0.072;2022-08-21T01:27:07;2.63;;;1.92;;
58484;SDS011;44268;43.138;0.072;2022-08-21T01:29:36;2.03;;;1.90;;
58484;SDS011;44268;43.138;0.072;2022-08-21T01:32:05;2.47;;;2.28;;
58484;SDS011;44268;43.138;0.072;2022-08-21T01:34:32;5.25;;;2.38;;
58484;SDS011;44268;43.138;0.072;2022-08-21T01:36:59;2.40;;;2.20;;
58484;SDS011;44268;43.138;0.072;2022-08-21T01:39:25;2.10;;;2.00;;
58484;SDS011;44268;43.138;0.072;2022-08-21T01:41:51;1.85;;;1.75;;
58484;SDS011;44268;43.138;0.072;2022-08-21T01:44:20;2.40;;;2.20;;
58484;SDS011;44268;43.138;0.072;2022-08-21T01:46:46;2.10;;;2.00;;
58484;SDS011;44268;43.138;0.072;2022-08-21T01:49:13;2.40;;;2.20;;
58484;SDS011;44268;43.138;0.072;2022-08-21T01:51:40;3.47;;;2.42;;
58484;SDS011;44268;43.138;0.072;2022-08-21T01:54:06;2.90;;;2.45;;
58484;SDS011;44268;43.138;0.072;2022-08-21T01:56:51;2.67;;;2.35;;
58484;SDS011;44268;43.138;0.072;2022-08-21T01:59:17;2.67;;;2.47;;
58484;SDS011;44268;43.138;0.072;2022-08-21T02:01:44;2.17;;;1.98;;
58484;SDS011;44268;43.138;0.072;2022-08-21T02:04:10;3.05;;;2.67;;
58484;SDS011;44268;43.138;0.072;2022-08-21T02:06:36;3.30;;;2.72;;
58484;SDS011;44268;43.138;0.072;2022-08-21T02:09:03;3.30;;;2.53;;
58484;SDS011;44268;43.138;0.072;2022-08-21T02:11:30;3.22;;;2.83;;
58484;SDS011;44268;43.138;0.072;2022-08-21T02:13:56;2.22;;;2.10;;
58484;SDS011;44268;43.138;0.072;2022-08-21T02:16:22;2.80;;;2.60;;
58484;SDS011;44268;43.138;0.072;2022-08-21T02:18:48;3.33;;;2.60;;
58484;SDS011;44268;43.138;0.072;2022-08-21T02:21:14;3.17;;;2.58;;
58484;SDS011;44268;43.138;0.072;2022-08-21T02:23:40;3.03;;;2.65;;
58484;SDS011;44268;43.138;0.072;2022-08-21T02:26:07;2.70;;;2.50;;
58484;SDS011;44268;43.138;0.072;2022-08-21T02:28:34;3.50;;;2.53;;
58484;SDS011;44268;43.138;0.072;2022-08-21T02:31:00;3.10;;;2.80;;
58484;SDS011;44268;43.138;0.072;2022-08-21T02:33:27;4.15;;;2.80;;
58484;SDS011;44268;43.138;0.072;2022-08-21T02:35:53;6.20;;;3.53;;
58484;SDS011;44268;43.138;0.072;2022-08-21T02:38:24;2.95;;;2.63;;
58484;SDS011;44268;43.138;0.072;2022-08-21T02:40:51;3.55;;;2.72;;
58484;SDS011;44268;43.138;0.072;2022-08-21T02:43:18;4.22;;;3.20;;
58484;SDS011;44268;43.138;0.072;2022-08-21T02:45:44;4.68;;;3.47;;
58484;SDS011;44268;43.138;0.072;2022-08-21T02:48:12;5.07;;;3.35;;
58484;SDS011;44268;43.138;0.072;2022-08-21T02:50:39;4.32;;;3.92;;
58484;SDS011;44268;43.138;0.072;2022-08-21T02:53:06;4.13;;;3.20;;
58484;SDS011;44268;43.138;0.072;2022-08-21T02:55:33;4.53;;;3.60;;
58484;SDS011;44268;43.138;0.072;2022-08-21T02:58:00;5.60;;;3.65;;
58484;SDS011;44268;43.138;0.072;2022-08-21T03:00:27;5.00;;;4.50;;
58484;SDS011;44268;43.138;0.072;2022-08-21T03:02:54;4.93;;;4.53;;
58484;SDS011;44268;43.138;0.072;2022-08-21T03:05:24;5.30;;;4.20;;
58484;SDS011;44268;43.138;0.072;2022-08-21T03:07:51;4.57;;;4.22;;
58484;SDS011;44268;43.138;0.072;2022-08-21T03:10:18;5.43;;;3.90;;
58484;SDS011;44268;43.138;0.072;2022-08-21T03:12:45;5.30;;;4.30;;
58484;SDS011;44268;43.138;0.072;2022-08-21T03:15:11;6.63;;;4.57;;
58484;SDS011;44268;43.138;0.072;2022-08-21T03:17:37;7.13;;;4.82;;
58484;SDS011;44268;43.138;0.072;2022-08-21T03:20:05;8.68;;;4.57;;
58484;SDS011;44268;43.138;0.072;2022-08-21T03:22:31;7.53;;;4.78;;
58484;SDS011;44268;43.138;0.072;2022-08-21T03:24:58;7.57;;;4.30;;
58484;SDS011;44268;43.138;0.072;2022-08-21T03:27:24;5.10;;;4.65;;
58484;SDS011;44268;43.138;0.072;2022-08-21T03:29:52;5.10;;;4.70;;
58484;SDS011;44268;43.138;0.072;2022-08-21T03:32:18;8.90;;;5.32;;
58484;SDS011;44268;43.138;0.072;2022-08-21T03:34:45;7.10;;;4.95;;
58484;SDS011;44268;43.138;0.072;2022-08-21T03:37:11;5.45;;;4.88;;
58484;SDS011;44268;43.138;0.072;2022-08-21T03:39:37;6.10;;;5.53;;
58484;SDS011;44268;43.138;0.072;2022-08-21T03:42:03;8.50;;;5.57;;
58484;SDS011;44268;43.138;0.072;2022-08-21T03:44:30;6.35;;;5.68;;
58484;SDS011;44268;43.138;0.072;2022-08-21T03:46:57;7.10;;;5.72;;
58484;SDS011;44268;43.138;0.072;2022-08-21T03:49:23;7.32;;;6.70;;
58484;SDS011;44268;43.138;0.072;2022-08-21T03:51:49;8.52;;;6.13;;
58484;SDS011;44268;43.138;0.072;2022-08-21T03:54:15;6.10;;;5.18;;
58484;SDS011;44268;43.138;0.072;2022-08-21T03:56:42;10.30;;;6.53;;
58484;SDS011;44268;43.138;0.072;2022-08-21T03:59:08;8.02;;;5.97;;
58484;SDS011;44268;43.138;0.072;2022-08-21T04:01:34;6.05;;;5.45;;
58484;SDS011;44268;43.138;0.072;2022-08-21T04:04:01;8.35;;;6.68;;
58484;SDS011;44268;43.138;0.072;2022-08-21T04:06:27;9.63;;;7.40;;
58484;SDS011;44268;43.138;0.072;2022-08-21T04:08:53;8.18;;;6.05;;
58484;SDS011;44268;43.138;0.072;2022-08-21T04:11:19;9.13;;;6.20;;
58484;SDS011;44268;43.138;0.072;2022-08-21T04:13:46;9.70;;;6.82;;
58484;SDS011;44268;43.138;0.072;2022-08-21T04:16:12;7.35;;;6.65;;
58484;SDS011;44268;43.138;0.072;2022-08-21T04:18:39;9.30;;;6.63;;
58484;SDS011;44268;43.138;0.072;2022-08-21T04:21:05;8.02;;;7.07;;
58484;SDS011;44268;43.138;0.072;2022-08-21T04:23:31;9.05;;;6.32;;
58484;SDS011;44268;43.138;0.072;2022-08-21T04:25:58;6.90;;;5.75;;
58484;SDS011;44268;43.138;0.072;2022-08-21T04:28:25;8.82;;;8.00;;
58484;SDS011;44268;43.138;0.072;2022-08-21T04:30:51;10.77;;;7.13;;
58484;SDS011;44268;43.138;0.072;2022-08-21T04:33:18;6.85;;;6.15;;
58484;SDS011;44268;43.138;0.072;2022-08-21T04:35:44;6.95;;;6.35;;
58484;SDS011;44268;43.138;0.072;2022-08-21T04:38:10;6.53;;;5.80;;
58484;SDS011;44268;43.138;0.072;2022-08-21T04:40:36;9.25;;;6.20;;
58484;SDS011;44268;43.138;0.072;2022-08-21T04:43:07;7.68;;;6.97;;
58484;SDS011;44268;43.138;0.072;2022-08-21T04:45:34;10.02;;;6.35;;
58484;SDS011;44268;43.138;0.072;2022-08-21T04:48:02;8.85;;;6.47;;
58484;SDS011;44268;43.138;0.072;2022-08-21T04:50:34;7.27;;;6.57;;
58484;SDS011;44268;43.138;0.072;2022-08-21T04:53:02;7.03;;;6.10;;
58484;SDS011;44268;43.138;0.072;2022-08-21T04:55:28;6.50;;;5.90;;
58484;SDS011;44268;43.138;0.072;2022-08-21T04:57:54;8.52;;;6.18;;
58484;SDS011;44268;43.138;0.072;2022-08-21T05:00:22;7.80;;;5.90;;
58484;SDS011;44268;43.138;0.072;2022-08-21T05:02:49;7.82;;;6.38;;
58484;SDS011;44268;43.138;0.072;2022-08-21T05:05:19;7.20;;;6.28;;
58484;SDS011;44268;43.138;0.072;2022-08-21T05:07:45;6.97;;;6.28;;
58484;SDS011;44268;43.138;0.072;2022-08-21T05:10:13;7.45;;;5.95;;
58484;SDS011;44268;43.138;0.072;2022-08-21T05:12:40;7.82;;;6.20;;
58484;SDS011;44268;43.138;0.072;2022-08-21T05:15:07;7.97;;;6.68;;
58484;SDS011;44268;43.138;0.072;2022-08-21T05:17:33;7.90;;;6.45;;
58484;SDS011;44268;43.138;0.072;2022-08-21T05:19:59;7.05;;;6.22;;
58484;SDS011;44268;43.138;0.072;2022-08-21T05:22:25;6.68;;;5.93;;
58484;SDS011;44268;43.138;0.072;2022-08-21T05:24:51;6.68;;;5.88;;
58484;SDS011;44268;43.138;0.072;2022-08-21T05:27:17;8.05;;;6.55;;
58484;SDS011;44268;43.138;0.072;2022-08-21T05:29:43;6.30;;;5.40;;
58484;SDS011;44268;43.138;0.072;2022-08-21T05:32:10;7.68;;;5.80;;
58484;SDS011;44268;43.138;0.072;2022-08-21T05:34:36;9.98;;;6.20;;
58484;SDS011;44268;43.138;0.072;2022-08-21T05:37:02;5.68;;;5.18;;
58484;SDS011;44268;43.138;0.072;2022-08-21T05:39:29;7.80;;;6.40;;
58484;SDS011;44268;43.138;0.072;2022-08-21T05:41:55;7.47;;;6.75;;
58484;SDS011;44268;43.138;0.072;2022-08-21T05:44:21;10.95;;;5.78;;
58484;SDS011;44268;43.138;0.072;2022-08-21T05:46:47;6.25;;;5.70;;
58484;SDS011;44268;43.138;0.072;2022-08-21T05:49:13;6.53;;;5.32;;
58484;SDS011;44268;43.138;0.072;2022-08-21T05:51:40;6.45;;;5.85;;
58484;SDS011;44268;43.138;0.072;2022-08-21T05:54:06;8.60;;;5.40;;
58484;SDS011;44268;43.138;0.072;2022-08-21T05:56:32;6.32;;;5.60;;
58484;SDS011;44268;43.138;0.072;2022-08-21T05:58:58;6.80;;;6.07;;
58484;SDS011;44268;43.138;0.072;2022-08-21T06:01:24;5.10;;;4.60;;
58484;SDS011;44268;43.138;0.072;2022-08-21T06:03:51;5.93;;;5.45;;
58484;SDS011;44268;43.138;0.072;2022-08-21T06:06:18;5.60;;;5.10;;
58484;SDS011;44268;43.138;0.072;2022-08-21T06:08:44;5.70;;;5.07;;
58484;SDS011;44268;43.138;0.072;2022-08-21T06:11:10;6.28;;;5.35;;
58484;SDS011;44268;43.138;0.072;2022-08-21T06:13:37;7.68;;;5.90;;
58484;SDS011;44268;43.138;0.072;2022-08-21T06:16:14;5.50;;;5.00;;
58484;SDS011;44268;43.138;0.072;2022-08-21T06:18:40;7.20;;;5.40;;
58484;SDS011;44268;43.138;0.072;2022-08-21T06:21:06;5.57;;;4.88;;
58484;SDS011;44268;43.138;0.072;2022-08-21T06:23:33;6.65;;;5.20;;
58484;SDS011;44268;43.138;0.072;2022-08-21T06:26:03;7.57;;;5.75;;
58484;SDS011;44268;43.138;0.072;2022-08-21T06:28:29;5.70;;;5.10;;
58484;SDS011;44268;43.138;0.072;2022-08-21T06:30:56;5.97;;;4.97;;
58484;SDS011;44268;43.138;0.072;2022-08-21T06:33:22;8.13;;;5.45;;
58484;SDS011;44268;43.138;0.072;2022-08-21T06:35:48;6.00;;;5.32;;
58484;SDS011;44268;43.138;0.072;2022-08-21T06:38:14;6.60;;;5.20;;
58484;SDS011;44268;43.138;0.072;2022-08-21T06:40:41;8.18;;;6.00;;
58484;SDS011;44268;43.138;0.072;2022-08-21T06:43:08;7.30;;;4.90;;
58484;SDS011;44268;43.138;0.072;2022-08-21T06:45:35;4.78;;;4.35;;
58484;SDS011;44268;43.138;0.072;2022-08-21T06:48:01;6.00;;;5.45;;
58484;SDS011;44268;43.138;0.072;2022-08-21T06:50:28;6.05;;;4.60;;
58484;SDS011;44268;43.138;0.072;2022-08-21T06:53:01;5.32;;;4.60;;
58484;SDS011;44268;43.138;0.072;2022-08-21T06:55:28;7.35;;;5.50;;
58484;SDS011;44268;43.138;0.072;2022-08-21T06:57:54;12.27;;;6.07;;
58484;SDS011;44268;43.138;0.072;2022-08-21T07:00:20;6.07;;;4.70;;
58484;SDS011;44268;43.138;0.072;2022-08-21T07:02:46;6.07;;;4.72;;
58484;SDS011;44268;43.138;0.072;2022-08-21T07:05:13;5.18;;;4.68;;
58484;SDS011;44268;43.138;0.072;2022-08-21T07:07:39;6.50;;;5.15;;
58484;SDS011;44268;43.138;0.072;2022-08-21T07:10:05;6.47;;;5.10;;
58484;SDS011;44268;43.138;0.072;2022-08-21T07:12:31;8.23;;;5.68;;
58484;SDS011;44268;43.138;0.072;2022-08-21T07:14:57;9.15;;;5.13;;
58484;SDS011;44268;43.138;0.072;2022-08-21T07:17:23;8.15;;;4.82;;
58484;SDS011;44268;43.138;0.072;2022-08-21T07:19:49;9.25;;;5.20;;
58484;SDS011;44268;43.138;0.072;2022-08-21T07:22:17;7.15;;;4.55;;
58484;SDS011;44268;43.138;0.072;2022-08-21T07:24:43;5.03;;;4.63;;
58484;SDS011;44268;43.138;0.072;2022-08-21T07:27:09;5.45;;;4.85;;
58484;SDS011;44268;43.138;0.072;2022-08-21T07:29:35;5.65;;;5.15;;
58484;SDS011;44268;43.138;0.072;2022-08-21T07:32:02;5.45;;;4.95;;
58484;SDS011;44268;43.138;0.072;2022-08-21T07:34:28;5.90;;;5.00;;
58484;SDS011;44268;43.138;0.072;2022-08-21T07:36:55;4.85;;;4.07;;
58484;SDS011;44268;43.138;0.072;2022-08-21T07:39:21;5.60;;;4.40;;
58484;SDS011;44268;43.138;0.072;2022-08-21T07:41:47;4.97;;;4.32;;
58484;SDS011;44268;43.138;0.072;2022-08-21T07:44:13;7.63;;;4.53;;
58484;SDS011;44268;43.138;0.072;2022-08-21T07:46:39;6.35;;;4.70;;
58484;SDS011;44268;43.138;0.072;2022-08-21T07:49:05;6.07;;;4.75;;
58484;SDS011;44268;43.138;0.072;2022-08-21T07:51:31;4.40;;;3.80;;
58484;SDS011;44268;43.138;0.072;2022-08-21T07:53:58;6.80;;;4.20;;
58484;SDS011;44268;43.138;0.072;2022-08-21T07:56:25;5.30;;;3.92;;
58484;SDS011;44268;43.138;0.072;2022-08-21T07:58:51;7.00;;;4.45;;
58484;SDS011;44268;43.138;0.072;2022-08-21T08:01:17;6.63;;;4.43;;
58484;SDS011;44268;43.138;0.072;2022-08-21T08:03:43;8.93;;;8.02;;
58484;SDS011;44268;43.138;0.072;2022-08-21T08:06:10;7.90;;;7.22;;
58484;SDS011;44268;43.138;0.072;2022-08-21T08:08:40;6.65;;;4.43;;
58484;SDS011;44268;43.138;0.072;2022-08-21T08:11:10;6.18;;;4.20;;
58484;SDS011;44268;43.138;0.072;2022-08-21T08:13:41;3.72;;;3.42;;
58484;SDS011;44268;43.138;0.072;2022-08-21T08:16:07;6.38;;;4.10;;
58484;SDS011;44268;43.138;0.072;2022-08-21T08:18:33;4.15;;;3.75;;
58484;SDS011;44268;43.138;0.072;2022-08-21T08:20:59;6.32;;;4.20;;
58484;SDS011;44268;43.138;0.072;2022-08-21T08:23:25;4.93;;;4.18;;
58484;SDS011;44268;43.138;0.072;2022-08-21T08:25:52;5.20;;;4.72;;
58484;SDS011;44268;43.138;0.072;2022-08-21T08:28:18;5.90;;;3.67;;
58484;SDS011;44268;43.138;0.072;2022-08-21T08:30:45;6.60;;;4.35;;
58484;SDS011;44268;43.138;0.072;2022-08-21T08:33:12;4.18;;;3.78;;
58484;SDS011;44268;43.138;0.072;2022-08-21T08:35:38;7.32;;;4.50;;
58484;SDS011;44268;43.138;0.072;2022-08-21T08:38:05;7.13;;;4.27;;
58484;SDS011;44268;43.138;0.072;2022-08-21T08:40:39;5.13;;;4.63;;
58484;SDS011;44268;43.138;0.072;2022-08-21T08:43:07;5.38;;;4.22;;
58484;SDS011;44268;43.138;0.072;2022-08-21T08:45:34;6.40;;;4.35;;
58484;SDS011;44268;43.138;0.072;2022-08-21T08:48:05;4.30;;;3.90;;
58484;SDS011;44268;43.138;0.072;2022-08-21T08:50:38;5.40;;;4.13;;
58484;SDS011;44268;43.138;0.072;2022-08-21T08:53:08;5.60;;;3.88;;
58484;SDS011;44268;43.138;0.072;2022-08-21T08:55:37;4.65;;;4.10;;
58484;SDS011;44268;43.138;0.072;2022-08-21T08:58:05;5.30;;;4.47;;
58484;SDS011;44268;43.138;0.072;2022-08-21T09:00:31;6.35;;;4.07;;
58484;SDS011;44268;43.138;0.072;2022-08-21T09:02:59;4.60;;;4.20;;
58484;SDS011;44268;43.138;0.072;2022-08-21T09:05:27;4.57;;;4.18;;
58484;SDS011;44268;43.138;0.072;2022-08-21T09:10:30;9.48;;;4.10;;
58484;SDS011;44268;43.138;0.072;2022-08-21T09:20:50;4.30;;;4.00;;
58484;SDS011;44268;43.138;0.072;2022-08-21T09:28:31;4.10;;;3.17;;
58484;SDS011;44268;43.138;0.072;2022-08-21T09:30:58;4.13;;;3.60;;
58484;SDS011;44268;43.138;0.072;2022-08-21T09:33:27;3.92;;;3.63;;
58484;SDS011;44268;43.138;0.072;2022-08-21T09:35:54;5.50;;;4.00;;
58484;SDS011;44268;43.138;0.072;2022-08-21T09:38:41;3.53;;;3.22;;
58484;SDS011;44268;43.138;0.072;2022-08-21T09:43:38;4.20;;;3.33;;
58484;SDS011;44268;43.138;0.072;2022-08-21T09:48:42;4.03;;;3.45;;
58484;SDS011;44268;43.138;0.072;2022-08-21T09:51:10;6.82;;;3.67;;
58484;SDS011;44268;43.138;0.072;2022-08-21T09:56:03;2.95;;;2.75;;
58484;SDS011;44268;43.138;0.072;2022-08-21T09:58:49;3.92;;;3.42;;
58484;SDS011;44268;43.138;0.072;2022-08-21T10:01:17;4.30;;;3.90;;
58484;SDS011;44268;43.138;0.072;2022-08-21T10:03:44;3.95;;;3.63;;
58484;SDS011;44268;43.138;0.072;2022-08-21T10:06:20;4.15;;;3.15;;
58484;SDS011;44268;43.138;0.072;2022-08-21T10:08:46;3.83;;;3.22;;
58484;SDS011;44268;43.138;0.072;2022-08-21T10:11:13;3.42;;;3.13;;
58484;SDS011;44268;43.138;0.072;2022-08-21T10:13:47;5.00;;;3.35;;
58484;SDS011;44268;43.138;0.072;2022-08-21T10:18:51;4.55;;;3.15;;
58484;SDS011;44268;43.138;0.072;2022-08-21T10:23:57;3.30;;;3.03;;
58484;SDS011;44268;43.138;0.072;2022-08-21T10:31:58;3.17;;;2.88;;
58484;SDS011;44268;43.138;0.072;2022-08-21T10:34:31;3.70;;;3.25;;
58484;SDS011;44268;43.138;0.072;2022-08-21T10:37:09;3.35;;;3.05;;
58484;SDS011;44268;43.138;0.072;2022-08-21T10:39:44;4.40;;;3.03;;
58484;SDS011;44268;43.138;0.072;2022-08-21T10:42:21;3.38;;;2.80;;
58484;SDS011;44268;43.138;0.072;2022-08-21T10:44:54;2.58;;;2.42;;
58484;SDS011;44268;43.138;0.072;2022-08-21T10:47:30;5.55;;;2.67;;
58484;SDS011;44268;43.138;0.072;2022-08-21T10:52:53;3.72;;;3.35;;
58484;SDS011;44268;43.138;0.072;2022-08-21T10:55:22;3.13;;;2.83;;
58484;SDS011;44268;43.138;0.072;2022-08-21T10:58:01;3.45;;;3.25;;
58484;SDS011;44268;43.138;0.072;2022-08-21T11:00:30;4.25;;;3.15;;
58484;SDS011;44268;43.138;0.072;2022-08-21T11:05:31;3.15;;;2.83;;
58484;SDS011;44268;43.138;0.072;2022-08-21T11:08:03;3.00;;;2.80;;
58484;SDS011;44268;43.138;0.072;2022-08-21T11:11:04;3.50;;;3.20;;
58484;SDS011;44268;43.138;0.072;2022-08-21T11:19:00;3.33;;;3.03;;
58484;SDS011;44268;43.138;0.072;2022-08-21T11:26:35;3.17;;;2.53;;
58484;SDS011;44268;43.138;0.072;2022-08-21T11:29:16;2.85;;;2.65;;
58484;SDS011;44268;43.138;0.072;2022-08-21T11:32:05;2.67;;;2.47;;
58484;SDS011;44268;43.138;0.072;2022-08-21T11:37:04;3.00;;;2.80;;
58484;SDS011;44268;43.138;0.072;2022-08-21T11:50:13;3.10;;;2.72;;
58484;SDS011;44268;43.138;0.072;2022-08-21T11:52:42;3.13;;;2.80;;
58484;SDS011;44268;43.138;0.072;2022-08-21T11:55:21;3.17;;;2.88;;
58484;SDS011;44268;43.138;0.072;2022-08-21T11:57:55;2.65;;;2.45;;
58484;SDS011;44268;43.138;0.072;2022-08-21T12:00:25;3.08;;;2.65;;
58484;SDS011;44268;43.138;0.072;2022-08-21T12:02:53;3.20;;;3.00;;
58484;SDS011;44268;43.138;0.072;2022-08-21T12:05:39;6.72;;;3.63;;
58484;SDS011;44268;43.138;0.072;2022-08-21T12:10:36;3.17;;;2.58;;
58484;SDS011;44268;43.138;0.072;2022-08-21T12:13:08;2.67;;;2.47;;
58484;SDS011;44268;43.138;0.072;2022-08-21T12:15:36;3.60;;;2.80;;
58484;SDS011;44268;43.138;0.072;2022-08-21T12:18:04;2.53;;;2.10;;
58484;SDS011;44268;43.138;0.072;2022-08-21T12:25:36;4.40;;;2.90;;
58484;SDS011;44268;43.138;0.072;2022-08-21T12:28:06;2.63;;;2.42;;
58484;SDS011;44268;43.138;0.072;2022-08-21T12:30:34;2.58;;;2.38;;
58484;SDS011;44268;43.138;0.072;2022-08-21T12:33:04;2.95;;;2.53;;
58484;SDS011;44268;43.138;0.072;2022-08-21T12:35:40;3.58;;;2.60;;
58484;SDS011;44268;43.138;0.072;2022-08-21T12:38:32;3.83;;;2.75;;
58484;SDS011;44268;43.138;0.072;2022-08-21T12:41:00;4.28;;;3.22;;
58484;SDS011;44268;43.138;0.072;2022-08-21T12:43:35;2.08;;;1.98;;
58484;SDS011;44268;43.138;0.072;2022-08-21T12:46:02;2.75;;;2.55;;
58484;SDS011;44268;43.138;0.072;2022-08-21T12:51:05;3.95;;;2.67;;
58484;SDS011;44268;43.138;0.072;2022-08-21T12:53:35;2.83;;;2.55;;
58484;SDS011;44268;43.138;0.072;2022-08-21T12:56:02;5.57;;;3.50;;
58484;SDS011;44268;43.138;0.072;2022-08-21T12:58:29;2.88;;;2.55;;
58484;SDS011;44268;43.138;0.072;2022-08-21T13:01:00;6.22;;;3.72;;
58484;SDS011;44268;43.138;0.072;2022-08-21T13:03:27;3.38;;;2.85;;
58484;SDS011;44268;43.138;0.072;2022-08-21T13:05:53;3.35;;;3.05;;
58484;SDS011;44268;43.138;0.072;2022-08-21T13:08:20;4.03;;;3.22;;
58484;SDS011;44268;43.138;0.072;2022-08-21T13:10:47;2.75;;;2.38;;
58484;SDS011;44268;43.138;0.072;2022-08-21T13:13:21;3.20;;;3.00;;
58484;SDS011;44268;43.138;0.072;2022-08-21T13:15:47;3.17;;;2.97;;
58484;SDS011;44268;43.138;0.072;2022-08-21T13:18:21;2.90;;;2.70;;
58484;SDS011;44268;43.138;0.072;2022-08-21T13:20:48;2.92;;;2.70;;
58484;SDS011;44268;43.138;0.072;2022-08-21T13:23:27;3.33;;;3.13;;
58484;SDS011;44268;43.138;0.072;2022-08-21T13:25:54;2.90;;;2.70;;
58484;SDS011;44268;43.138;0.072;2022-08-21T13:28:21;3.08;;;2.88;;
58484;SDS011;44268;43.138;0.072;2022-08-21T13:30:48;3.20;;;3.00;;
58484;SDS011;44268;43.138;0.072;2022-08-21T13:33:15;3.30;;;2.90;;
58484;SDS011;44268;43.138;0.072;2022-08-21T13:38:12;3.05;;;2.70;;
58484;SDS011;44268;43.138;0.072;2022-08-21T13:40:40;4.15;;;2.78;;
58484;SDS011;44268;43.138;0.072;2022-08-21T13:43:12;3.20;;;3.00;;
58484;SDS011;44268;43.138;0.072;2022-08-21T13:45:42;2.72;;;2.33;;
58484;SDS011;44268;43.138;0.072;2022-08-21T13:48:09;3.45;;;2.40;;
58484;SDS011;44268;43.138;0.072;2022-08-21T13:50:36;3.47;;;3.28;;
58484;SDS011;44268;43.138;0.072;2022-08-21T13:53:04;3.53;;;2.80;;
58484;SDS011;44268;43.138;0.072;2022-08-21T13:55:41;3.28;;;2.55;;
58484;SDS011;44268;43.138;0.072;2022-08-21T13:58:07;3.03;;;2.83;;
58484;SDS011;44268;43.138;0.072;2022-08-21T14:00:42;3.20;;;2.90;;
58484;SDS011;44268;43.138;0.072;2022-08-21T14:03:09;2.70;;;2.50;;
58484;SDS011;44268;43.138;0.072;2022-08-21T14:05:37;2.33;;;2.22;;
58484;SDS011;44268;43.138;0.072;2022-08-21T14:10:37;4.78;;;3.25;;
58484;SDS011;44268;43.138;0.072;2022-08-21T14:13:06;2.83;;;2.50;;
58484;SDS011;44268;43.138;0.072;2022-08-21T14:15:33;3.42;;;2.60;;
58484;SDS011;44268;43.138;0.072;2022-08-21T14:18:14;2.58;;;2.38;;
58484;SDS011;44268;43.138;0.072;2022-08-21T14:20:41;3.08;;;2.78;;
58484;SDS011;44268;43.138;0.072;2022-08-21T14:23:07;3.20;;;2.50;;
58484;SDS011;44268;43.138;0.072;2022-08-21T14:25:41;3.33;;;3.03;;
58484;SDS011;44268;43.138;0.072;2022-08-21T14:30:52;3.17;;;2.33;;
58484;SDS011;44268;43.138;0.072;2022-08-21T14:33:25;3.42;;;2.67;;
58484;SDS011;44268;43.138;0.072;2022-08-21T14:35:52;3.88;;;2.28;;
58484;SDS011;44268;43.138;0.072;2022-08-21T14:38:19;3.08;;;2.45;;
58484;SDS011;44268;43.138;0.072;2022-08-21T14:40:48;2.28;;;2.17;;
58484;SDS011;44268;43.138;0.072;2022-08-21T14:43:15;3.67;;;2.58;;
58484;SDS011;44268;43.138;0.072;2022-08-21T14:45:41;2.60;;;2.40;;
58484;SDS011;44268;43.138;0.072;2022-08-21T14:48:08;2.50;;;2.30;;
58484;SDS011;44268;43.138;0.072;2022-08-21T14:50:34;2.60;;;2.47;;
58484;SDS011;44268;43.138;0.072;2022-08-21T14:53:00;4.03;;;2.38;;
58484;SDS011;44268;43.138;0.072;2022-08-21T14:55:29;2.58;;;2.30;;
58484;SDS011;44268;43.138;0.072;2022-08-21T14:57:55;4.25;;;3.22;;
58484;SDS011;44268;43.138;0.072;2022-08-21T15:00:23;3.33;;;2.28;;
58484;SDS011;44268;43.138;0.072;2022-08-21T15:02:49;2.58;;;2.35;;
58484;SDS011;44268;43.138;0.072;2022-08-21T15:05:16;3.60;;;2.63;;
58484;SDS011;44268;43.138;0.072;2022-08-21T15:07:42;3.42;;;2.28;;
58484;SDS011;44268;43.138;0.072;2022-08-21T15:10:10;3.13;;;2.22;;
58484;SDS011;44268;43.138;0.072;2022-08-21T15:12:36;4.63;;;2.40;;
58484;SDS011;44268;43.138;0.072;2022-08-21T15:15:04;2.42;;;2.22;;
58484;SDS011;44268;43.138;0.072;2022-08-21T15:19:56;2.13;;;2.03;;
58484;SDS011;44268;43.138;0.072;2022-08-21T15:22:22;3.05;;;2.42;;
58484;SDS011;44268;43.138;0.072;2022-08-21T15:24:48;3.13;;;2.40;;
58484;SDS011;44268;43.138;0.072;2022-08-21T15:27:14;3.97;;;2.40;;
58484;SDS011;44268;43.138;0.072;2022-08-21T15:32:18;2.83;;;2.40;;
58484;SDS011;44268;43.138;0.072;2022-08-21T15:34:46;2.20;;;2.10;;
58484;SDS011;44268;43.138;0.072;2022-08-21T15:37:12;4.20;;;2.08;;
58484;SDS011;44268;43.138;0.072;2022-08-21T15:39:38;2.22;;;2.03;;
58484;SDS011;44268;43.138;0.072;2022-08-21T15:42:04;3.45;;;2.10;;
58484;SDS011;44268;43.138;0.072;2022-08-21T15:44:31;2.05;;;1.95;;
58484;SDS011;44268;43.138;0.072;2022-08-21T15:46:58;2.47;;;1.90;;
58484;SDS011;44268;43.138;0.072;2022-08-21T15:49:24;2.53;;;2.33;;
58484;SDS011;44268;43.138;0.072;2022-08-21T15:51:50;2.05;;;1.92;;
58484;SDS011;44268;43.138;0.072;2022-08-21T15:54:16;2.70;;;2.00;;
58484;SDS011;44268;43.138;0.072;2022-08-21T15:56:44;2.17;;;2.08;;
58484;SDS011;44268;43.138;0.072;2022-08-21T15:59:15;2.90;;;2.35;;
58484;SDS011;44268;43.138;0.072;2022-08-21T16:01:42;3.80;;;2.33;;
58484;SDS011;44268;43.138;0.072;2022-08-21T16:04:09;8.07;;;4.95;;
58484;SDS011;44268;43.138;0.072;2022-08-21T16:06:36;10.70;;;4.65;;
58484;SDS011;44268;43.138;0.072;2022-08-21T16:09:02;4.97;;;3.45;;
58484;SDS011;44268;43.138;0.072;2022-08-21T16:11:29;3.20;;;2.10;;
58484;SDS011;44268;43.138;0.072;2022-08-21T16:13:55;2.30;;;2.10;;
58484;SDS011;44268;43.138;0.072;2022-08-21T16:16:22;3.13;;;2.83;;
58484;SDS011;44268;43.138;0.072;2022-08-21T16:18:49;3.40;;;2.70;;
58484;SDS011;44268;43.138;0.072;2022-08-21T16:23:42;4.68;;;2.25;;